| Date Time MST |
Temp °F |
RH % |
DewPt °F |
Wind mph |
Dir ° |
Gust mph |
Dir ° |
Press in Hg |
Solar W/m^2 |
Prec in |
|---|---|---|---|---|---|---|---|---|---|---|
| 2026-05-05 18:40 | 32.3 | 98.1 | 31.8 | 3.1 | 327 | 3.7 | 327 | 24.821 | 18.3 | 0.00 |
| 2026-05-05 18:35 | 32.2 | 98.1 | 31.7 | 2.8 | 325 | 3.4 | 318 | 24.822 | 12.5 | 0.00 |
| 2026-05-05 18:30 | 32.2 | 98.1 | 31.7 | 3.3 | 320 | 3.6 | 329 | 24.821 | 11.5 | 0.00 |
| 2026-05-05 18:25 | 32.2 | 98.2 | 31.7 | 3.5 | 330 | 3.9 | 332 | 24.818 | 13.8 | 0.00 |
| 2026-05-05 18:20 | 32.2 | 98.2 | 31.7 | 2.9 | 345 | 3.6 | 354 | 24.813 | 16.3 | 0.00 |
| 2026-05-05 18:15 | 32.1 | 98.1 | 31.7 | 2.7 | 349 | 3.2 | 349 | 24.812 | 17.0 | 0.00 |
| 2026-05-05 18:10 | 32.1 | 98.1 | 31.6 | 3.0 | 350 | 3.6 | 354 | 24.812 | 19.3 | 0.00 |
| 2026-05-05 18:05 | 32.1 | 98.1 | 31.7 | 2.8 | 6 | 3.6 | 358 | 24.813 | 22.9 | 0.01 |
| 2026-05-05 18:00 | 32.1 | 98.1 | 31.6 | 3.2 | 358 | 3.9 | 10 | 24.813 | 24.0 | 0.00 |
| 2026-05-05 17:55 | 32.2 | 98.1 | 31.7 | 3.1 | 9 | 3.9 | 10 | 24.813 | 22.9 | 0.00 |
| 2026-05-05 17:50 | 32.3 | 98.1 | 31.8 | 3.0 | 357 | 4.1 | 353 | 24.813 | 23.0 | 0.00 |
| 2026-05-05 17:45 | 32.3 | 98.1 | 31.8 | 2.8 | 356 | 3.4 | 349 | 24.813 | 28.7 | 0.00 |
| 2026-05-05 17:40 | 32.4 | 98.1 | 31.9 | 2.8 | 0 | 3.7 | 358 | 24.812 | 39.2 | 0.00 |
| 2026-05-05 17:35 | 32.4 | 98.0 | 31.9 | 3.3 | 358 | 3.9 | 358 | 24.809 | 39.5 | 0.00 |
| 2026-05-05 17:30 | 32.6 | 98.0 | 32.1 | 2.9 | 355 | 3.5 | 354 | 24.809 | 33.9 | 0.00 |
| 2026-05-05 17:25 | 32.6 | 98.1 | 32.1 | 3.6 | 332 | 4.6 | 319 | 24.810 | 32.4 | 0.00 |
| 2026-05-05 17:20 | 32.7 | 98.0 | 32.2 | 4.6 | 320 | 5.2 | 301 | 24.812 | 39.4 | 0.00 |
| 2026-05-05 17:15 | 32.8 | 98.1 | 32.4 | 4.3 | 299 | 5.2 | 301 | 24.810 | 46.3 | 0.00 |
| 2026-05-05 17:10 | 32.8 | 98.0 | 32.3 | 4.4 | 291 | 5.7 | 302 | 24.810 | 53.9 | 0.01 |
| 2026-05-05 17:05 | 32.8 | 98.0 | 32.3 | 5.6 | 297 | 6.4 | 301 | 24.809 | 59.5 | 0.00 |
| 2026-05-05 17:00 | 32.7 | 98.1 | 32.2 | 5.5 | 302 | 6.5 | 304 | 24.806 | 64.0 | 0.00 |
| 2026-05-05 16:55 | 32.6 | 98.0 | 32.1 | 5.7 | 300 | 6.4 | 309 | 24.805 | 55.7 | 0.00 |
| 2026-05-05 16:50 | 32.6 | 98.0 | 32.1 | 5.7 | 311 | 6.7 | 312 | 24.804 | 51.8 | 0.00 |
| 2026-05-05 16:45 | 32.7 | 97.9 | 32.1 | 6.1 | 309 | 7.0 | 314 | 24.806 | 60.5 | 0.00 |
| 2026-05-05 16:40 | 32.8 | 98.1 | 32.3 | 6.4 | 312 | 7.2 | 309 | 24.809 | 69.7 | 0.01 |
| 2026-05-05 16:35 | 32.9 | 97.9 | 32.3 | 5.8 | 305 | 6.6 | 308 | 24.809 | 71.9 | 0.00 |
| 2026-05-05 16:30 | 32.9 | 98.0 | 32.4 | 5.0 | 303 | 6.1 | 304 | 24.809 | 78.3 | 0.00 |
| 2026-05-05 16:25 | 32.8 | 98.0 | 32.3 | 4.4 | 301 | 5.0 | 301 | 24.808 | 79.0 | 0.00 |
| 2026-05-05 16:20 | 32.7 | 98.0 | 32.2 | 4.8 | 299 | 5.7 | 296 | 24.806 | 71.5 | 0.00 |
| 2026-05-05 16:15 | 32.6 | 98.0 | 32.1 | 5.1 | 297 | 5.8 | 313 | 24.806 | 69.2 | 0.00 |
| Date Time MST |
Temp °C |
RH % |
DewPt °C |
Wind m/s |
Dir ° |
Gust m/s |
Dir ° |
Press hPa |
Solar W/m^2 |
Prec mm |
|---|---|---|---|---|---|---|---|---|---|---|
| 2026-05-05 18:40 | 0.1 | 98.1 | -0.1 | 1.4 | 327 | 1.6 | 327 | 840.53 | 18.3 | 0.00 |
| 2026-05-05 18:35 | 0.1 | 98.1 | -0.2 | 1.3 | 325 | 1.5 | 318 | 840.58 | 12.5 | 0.00 |
| 2026-05-05 18:30 | 0.1 | 98.1 | -0.2 | 1.5 | 320 | 1.6 | 329 | 840.52 | 11.5 | 0.00 |
| 2026-05-05 18:25 | 0.1 | 98.2 | -0.2 | 1.6 | 330 | 1.7 | 332 | 840.43 | 13.8 | 0.00 |
| 2026-05-05 18:20 | 0.1 | 98.2 | -0.2 | 1.3 | 345 | 1.6 | 354 | 840.26 | 16.3 | 0.00 |
| 2026-05-05 18:15 | 0.1 | 98.1 | -0.2 | 1.2 | 349 | 1.4 | 349 | 840.25 | 17.0 | 0.00 |
| 2026-05-05 18:10 | 0.1 | 98.1 | -0.2 | 1.3 | 350 | 1.6 | 354 | 840.23 | 19.3 | 0.00 |
| 2026-05-05 18:05 | 0.1 | 98.1 | -0.2 | 1.3 | 6 | 1.6 | 358 | 840.26 | 22.9 | 0.25 |
| 2026-05-05 18:00 | 0.1 | 98.1 | -0.2 | 1.4 | 358 | 1.7 | 10 | 840.27 | 24.0 | 0.00 |
| 2026-05-05 17:55 | 0.1 | 98.1 | -0.2 | 1.4 | 9 | 1.7 | 10 | 840.27 | 22.9 | 0.00 |
| 2026-05-05 17:50 | 0.1 | 98.1 | -0.1 | 1.3 | 357 | 1.8 | 353 | 840.27 | 23.0 | 0.00 |
| 2026-05-05 17:45 | 0.2 | 98.1 | -0.1 | 1.3 | 356 | 1.5 | 349 | 840.27 | 28.7 | 0.00 |
| 2026-05-05 17:40 | 0.2 | 98.1 | -0.1 | 1.3 | 0 | 1.7 | 358 | 840.24 | 39.2 | 0.00 |
| 2026-05-05 17:35 | 0.2 | 98.0 | -0.1 | 1.5 | 358 | 1.8 | 358 | 840.13 | 39.5 | 0.00 |
| 2026-05-05 17:30 | 0.3 | 98.0 | 0.0 | 1.3 | 355 | 1.6 | 354 | 840.14 | 33.9 | 0.00 |
| 2026-05-05 17:25 | 0.3 | 98.1 | 0.1 | 1.6 | 332 | 2.0 | 319 | 840.15 | 32.4 | 0.00 |
| 2026-05-05 17:20 | 0.4 | 98.0 | 0.1 | 2.0 | 320 | 2.3 | 301 | 840.23 | 39.4 | 0.00 |
| 2026-05-05 17:15 | 0.5 | 98.1 | 0.2 | 1.9 | 299 | 2.3 | 301 | 840.18 | 46.3 | 0.00 |
| 2026-05-05 17:10 | 0.4 | 98.0 | 0.1 | 2.0 | 291 | 2.5 | 302 | 840.15 | 53.9 | 0.25 |
| 2026-05-05 17:05 | 0.4 | 98.0 | 0.2 | 2.5 | 297 | 2.9 | 301 | 840.13 | 59.5 | 0.00 |
| 2026-05-05 17:00 | 0.4 | 98.1 | 0.1 | 2.5 | 302 | 2.9 | 304 | 840.04 | 64.0 | 0.00 |
| 2026-05-05 16:55 | 0.3 | 98.0 | 0.1 | 2.6 | 300 | 2.9 | 309 | 839.99 | 55.7 | 0.00 |
| 2026-05-05 16:50 | 0.3 | 98.0 | 0.1 | 2.5 | 311 | 3.0 | 312 | 839.94 | 51.8 | 0.00 |
| 2026-05-05 16:45 | 0.4 | 97.9 | 0.1 | 2.7 | 309 | 3.1 | 314 | 840.02 | 60.5 | 0.00 |
| 2026-05-05 16:40 | 0.4 | 98.1 | 0.2 | 2.9 | 312 | 3.2 | 309 | 840.12 | 69.7 | 0.25 |
| 2026-05-05 16:35 | 0.5 | 97.9 | 0.2 | 2.6 | 305 | 3.0 | 308 | 840.13 | 71.9 | 0.00 |
| 2026-05-05 16:30 | 0.5 | 98.0 | 0.2 | 2.2 | 303 | 2.7 | 304 | 840.14 | 78.3 | 0.00 |
| 2026-05-05 16:25 | 0.5 | 98.0 | 0.2 | 2.0 | 301 | 2.2 | 301 | 840.08 | 79.0 | 0.00 |
| 2026-05-05 16:20 | 0.4 | 98.0 | 0.1 | 2.2 | 299 | 2.6 | 296 | 840.02 | 71.5 | 0.00 |
| 2026-05-05 16:15 | 0.3 | 98.0 | 0.1 | 2.3 | 297 | 2.6 | 313 | 840.04 | 69.2 | 0.00 |